SAZR/RSA METAR and TAF weather

Enter ICAO airport designator
Station Type Date Time Source
SAZR METAR 2020/11/23 20:44 UTC NOAA

SAZR 232044Z 14015KT 3000 BLDU SCT035 SCT060CB 36/17 Q1003


Station Type Date Time Source
SAZR Decoded METAR 2020/11/23 20:44 UTC NOAA

Santa Rosa Aerodrome, Argentina (SAZR) 36-34S 064-16W 191M
Nov 23, 2020 - 03:44 PM EST / 2020.11.23 2044 UTC
Wind: from the SE (140 degrees) at 17 MPH (15 KT):0
Visibility: 1 mile(s):0
Sky conditions: partly cloudy
Weather: blowing widespread dust; Cumulonimbus clouds observed
Temperature: 96 F (36 C)
Heat index: 96.8 F (36.0 C):1
Dew Point: 62 F (17 C)
Relative Humidity: 32%
Pressure (altimeter): 29.62 in. Hg (1003 hPa)
ob: SAZR 232044Z 14015KT 3000 BLDU SCT035 SCT060CB 36/17 Q1003
cycle: 20

Station Type Date Time Source
SAZR TAF 2020/11/14 12:24 UTC NOAA

TAF SAZR 141100Z 1412/1512 20015G25KT CAVOK TX26/1418Z TN10/1509Z
BECMG 1422/1501 15005KT

Example: see airport list